Buchanan #12 — WDC2499 — position and weather

sailwx.info

Track history (hours):
 
Tides and Currents Weather Stations Pressure Air Temp Water Temp Dewpoint Dewpoint Depression Visibility Wind Speed Wind Dir Waves Ship Positions

Buchanan #12

Owner: Buchanan Marine LP, New Haven, CT. More information available from US FCC via Universal Licensing System and Coast Guard Vessel Documentation Center.

Last reported at 2017-Oct-18 23:15 UTC. Time now 2017-Oct-19 05:34 UTC.
Position N 40°57' W 073°54'.

Length 27 m; draft 3 m.

Type: Tug. MMSI: 366993970.

Date/timePositionNaut miles runAvg speedWind from/ knotsBaromVisibWave heightAir tempDewpointWater temp
2017-Oct-18 23:15N 40°57' W 073°54'3 8.5
2017-Oct-18 22:57N 40°54' W 073°55'4 8.5
2017-Oct-18 22:30N 40°51' W 073°57'4 8.2
2017-Oct-18 22:00N 40°47' W 073°59'4 7.3
2017-Oct-18 21:31N 40°44' W 074°01'4 7.2
2017-Oct-18 21:00N 40°40' W 074°03'1 1.1
2017-Oct-18 20:30N 40°40' W 074°03'1 2.1
2017-Oct-18 20:00N 40°41' W 074°02'2 3.4
2017-Oct-18 19:30N 40°41' W 074°00'1 2.9
2017-Oct-18 19:01N 40°40' W 074°01'0 0.2
2017-Oct-18 18:31N 40°40' W 074°01'0 0.0
2017-Oct-18 18:00N 40°40' W 074°01'0 0.0
2017-Oct-18 17:31N 40°40' W 074°01'2 3.1
2017-Oct-18 17:01N 40°40' W 074°03'0 0.8
2017-Oct-18 16:31N 40°40' W 074°03'2 3.4
2017-Oct-18 16:00N 40°41' W 074°02'3 6.3
2017-Oct-18 15:31N 40°44' W 074°01'3 6.3
2017-Oct-18 15:00N 40°47' W 073°60'5 5.1
2017-Oct-18 14:00N 40°52' W 073°57'6 0.4
2017-Oct-17 22:06N 40°57' W 073°54'1 7.9
2017-Oct-17 21:57N 40°56' W 073°54'3 7.6
2017-Oct-17 21:30N 40°53' W 073°56'4 7.3
2017-Oct-17 21:00N 40°49' W 073°58'3 6.8
2017-Oct-17 20:31N 40°47' W 074°00'3 6.0
2017-Oct-17 20:01N 40°44' W 074°01'3 6.0
2017-Oct-17 19:30N 40°41' W 074°02'1 2.4
2017-Oct-17 19:00N 40°40' W 074°03'0 0.0
2017-Oct-17 18:30N 40°40' W 074°03'0 0.0
2017-Oct-17 18:00N 40°40' W 074°03'0 0.1
2017-Oct-17 17:31N 40°40' W 074°03'2 3.8
2017-Oct-17 17:00N 40°41' W 074°02'3 6.3
2017-Oct-17 16:30N 40°45' W 074°01'3 6.4
2017-Oct-17 16:01N 40°47' W 073°60'3 5.8
2017-Oct-17 15:30N 40°50' W 073°58'3 5.2
2017-Oct-17 15:00N 40°52' W 073°56'5 0.3
2017-Oct-16 21:49N 40°57' W 073°54'2 7.1
2017-Oct-16 21:30N 40°55' W 073°55'3 6.6
2017-Oct-16 21:00N 40°52' W 073°56'3 6.9
2017-Oct-16 20:30N 40°49' W 073°58'3 6.6
2017-Oct-16 20:00N 40°46' W 074°00'3 5.9
2017-Oct-16 19:30N 40°43' W 074°01'3 5.6
2017-Oct-16 19:01N 40°41' W 074°02'1 1.9
2017-Oct-16 18:30N 40°40' W 074°03'2 4.7
2017-Oct-16 18:00N 40°40' W 074°00'0 0.6
2017-Oct-16 17:30N 40°40' W 074°01'2 4.1
2017-Oct-16 17:01N 40°40' W 074°03'2 4.1
2017-Oct-16 16:30N 40°41' W 074°01'0 0.9
2017-Oct-16 16:00N 40°41' W 074°01'1 1.4
2017-Oct-16 15:31N 40°40' W 074°01'0 0.0
2017-Oct-16 15:01N 40°40' W 074°01'0 0.0
2017-Oct-16 14:30N 40°40' W 074°01'0 0.0
2017-Oct-16 13:31N 40°40' W 074°01'0 0.0
2017-Oct-16 13:00N 40°40' W 074°01'0 0.0
2017-Oct-16 12:31N 40°40' W 074°01'0 0.0
2017-Oct-16 12:00N 40°40' W 074°01'0 0.0
2017-Oct-16 11:31N 40°40' W 074°01'0 0.0
2017-Oct-16 11:00N 40°40' W 074°01'0 0.0
2017-Oct-16 10:31N 40°40' W 074°01'0 0.0
2017-Oct-16 10:00N 40°40' W 074°01'2 0.1
2017-Oct-15 14:00N 40°40' W 074°03'3 5.7
2017-Oct-15 13:30N 40°39' W 074°07'0 0.0
2017-Oct-15 13:00N 40°39' W 074°07'0 0.0
2017-Oct-15 11:21N 40°39' W 074°07'1 4.2
2017-Oct-15 11:00N 40°39' W 074°05'1 2.5
2017-Oct-15 10:30N 40°40' W 074°03'0 0.0
2017-Oct-15 10:00N 40°40' W 074°03'0 0.0
2017-Oct-15 09:30N 40°40' W 074°03'0 0.0
2017-Oct-15 09:00N 40°40' W 074°03'0 0.0
2017-Oct-15 08:30N 40°40' W 074°03'0 0.0
2017-Oct-15 08:00N 40°40' W 074°03'0 0.0
2017-Oct-15 07:30N 40°40' W 074°03'0 0.0
2017-Oct-15 07:00N 40°40' W 074°03'0 0.0
2017-Oct-15 06:30N 40°40' W 074°03'0 0.0
2017-Oct-15 06:00N 40°40' W 074°03'0 0.0
2017-Oct-15 05:30N 40°40' W 074°03'0 0.0
2017-Oct-15 05:00N 40°40' W 074°03'0 0.0
2017-Oct-15 04:31N 40°40' W 074°03'0 0.0
2017-Oct-15 04:00N 40°40' W 074°03'0 0.0
2017-Oct-15 03:30N 40°40' W 074°03'2 3.9
2017-Oct-15 03:00N 40°42' W 074°02'4 7.4
2017-Oct-15 02:30N 40°45' W 074°01'4 6.9
2017-Oct-15 02:00N 40°48' W 073°59'3 6.0
2017-Oct-15 01:30N 40°51' W 073°57'3 5.2
2017-Oct-15 00:57N 40°54' W 073°56'3 0.2
2017-Oct-14 07:06N 40°57' W 073°54'2 6.4
2017-Oct-14 06:52N 40°55' W 073°55'2 6.0
2017-Oct-14 06:30N 40°53' W 073°56'3 5.7
2017-Oct-14 06:00N 40°51' W 073°57'3 5.6
2017-Oct-14 05:30N 40°48' W 073°59'3 5.0
2017-Oct-14 05:00N 40°46' W 074°00'2 4.5
2017-Oct-14 04:29N 40°44' W 074°01'2 4.5
2017-Oct-14 04:00N 40°42' W 074°02'2 3.9
2017-Oct-14 03:30N 40°40' W 074°03'0 0.0
2017-Oct-14 03:00N 40°40' W 074°03'0 0.1
2017-Oct-14 02:30N 40°40' W 074°03'3 5.6
2017-Oct-14 02:00N 40°42' W 074°02'3 6.8
2017-Oct-14 01:30N 40°46' W 074°01'6 6.2
2017-Oct-14 00:30N 40°51' W 073°57'6 0.3
2017-Oct-13 05:50N 40°57' W 073°54'2 6.1
2017-Oct-13 05:30N 40°55' W 073°55'3 5.9
2017-Oct-13 05:00N 40°52' W 073°56'3 5.4
2017-Oct-13 04:30N 40°50' W 073°58'3 5.3
2017-Oct-13 04:00N 40°48' W 073°59'2 4.9
2017-Oct-13 03:30N 40°45' W 074°01'3 5.2
2017-Oct-13 02:59N 40°43' W 074°01'2 4.8
2017-Oct-13 02:30N 40°41' W 074°03'1 1.9
2017-Oct-13 02:00N 40°40' W 074°03'0 0.1
2017-Oct-13 01:30N 40°40' W 074°03'0 0.4
2017-Oct-13 01:00N 40°40' W 074°03'3 6.0
2017-Oct-13 00:30N 40°43' W 074°02'3 6.7
2017-Oct-13 00:00N 40°46' W 074°01'3 6.5
2017-Oct-12 23:30N 40°49' W 073°59'3 5.8
2017-Oct-12 23:00N 40°51' W 073°57'6 0.3
2017-Oct-12 04:06N 40°57' W 073°54'1 6.7
2017-Oct-12 03:54N 40°56' W 073°55'3 6.4
2017-Oct-12 03:30N 40°53' W 073°56'3 6.2
2017-Oct-12 03:00N 40°50' W 073°57'3 5.8
2017-Oct-12 02:30N 40°48' W 073°59'3 5.1
2017-Oct-12 02:00N 40°46' W 074°01'3 5.1
2017-Oct-12 01:30N 40°43' W 074°01'3 5.0
2017-Oct-12 01:00N 40°41' W 074°03'1 2.1
2017-Oct-12 00:30N 40°40' W 074°03'0 0.1
2017-Oct-12 00:00N 40°40' W 074°03'0 0.1
2017-Oct-11 23:30N 40°40' W 074°03'3 5.8
2017-Oct-11 23:00N 40°42' W 074°02'3 6.7
2017-Oct-11 22:30N 40°46' W 074°01'3 5.9
2017-Oct-11 22:00N 40°48' W 073°59'2 5.1
2017-Oct-11 21:30N 40°51' W 073°57'3 5.3
2017-Oct-11 20:56N 40°53' W 073°56'15 0.7
2017-Oct-11 00:00N 40°40' W 074°03'0 0.1
2017-Oct-10 23:30N 40°40' W 074°03'0 0.0
2017-Oct-10 23:00N 40°40' W 074°03'1 2.3
2017-Oct-10 22:30N 40°41' W 074°02'4 7.0
2017-Oct-10 22:00N 40°44' W 074°01'4 7.1
2017-Oct-10 21:30N 40°47' W 073°59'3 6.8
2017-Oct-10 21:00N 40°51' W 073°57'3 5.9
2017-Oct-10 20:30N 40°53' W 073°56'3 0.2
2017-Oct-10 02:24N 40°57' W 073°54'2 6.2
2017-Oct-10 02:00N 40°54' W 073°55'3 5.8
2017-Oct-10 01:30N 40°52' W 073°57'3 5.7
2017-Oct-10 01:00N 40°49' W 073°58'3 5.1
2017-Oct-10 00:30N 40°47' W 073°60'2 4.3
2017-Oct-10 00:00N 40°45' W 074°01'2 4.5
2017-Oct-09 23:30N 40°42' W 074°02'2 4.4
2017-Oct-09 23:00N 40°40' W 074°03'1 1.6
2017-Oct-09 22:30N 40°40' W 074°03'0 0.0
2017-Oct-09 22:00N 40°40' W 074°03'0 0.2
2017-Oct-09 21:30N 40°40' W 074°03'0 0.0
2017-Oct-09 21:00N 40°40' W 074°03'0 0.0
2017-Oct-09 20:30N 40°40' W 074°03'0 0.2
2017-Oct-09 20:00N 40°40' W 074°03'1 2.9
2017-Oct-09 19:30N 40°40' W 074°02'1 1.3
2017-Oct-09 19:00N 40°40' W 074°01'0 0.0
2017-Oct-09 18:30N 40°40' W 074°01'0 0.0
2017-Oct-09 18:00N 40°40' W 074°01'0 0.0
2017-Oct-09 17:30N 40°40' W 074°01'0 0.0
2017-Oct-09 17:00N 40°40' W 074°01'0 0.0
2017-Oct-09 16:30N 40°40' W 074°01'0 0.0
2017-Oct-09 16:00N 40°40' W 074°01'0 0.0
2017-Oct-09 15:30N 40°40' W 074°01'0 0.0
2017-Oct-09 15:00N 40°40' W 074°01'0 0.0
2017-Oct-09 14:30N 40°40' W 074°01'0 0.0
2017-Oct-09 14:00N 40°40' W 074°01'0 0.0
2017-Oct-09 13:30N 40°40' W 074°01'0 0.0
2017-Oct-09 13:00N 40°40' W 074°01'0 0.0
2017-Oct-09 12:30N 40°40' W 074°01'0 0.0
2017-Oct-09 12:00N 40°40' W 074°01'0 0.0
2017-Oct-09 11:30N 40°40' W 074°01'0 0.0
2017-Oct-09 11:00N 40°40' W 074°01'0 0.0
2017-Oct-09 10:30N 40°40' W 074°01'0 0.0
2017-Oct-09 10:00N 40°40' W 074°01'0 0.0
2017-Oct-09 09:30N 40°40' W 074°01'0 0.0
2017-Oct-09 09:00N 40°40' W 074°01'0 0.0
2017-Oct-09 08:30N 40°40' W 074°01'0 0.0
2017-Oct-09 08:00N 40°40' W 074°01'0 0.0
2017-Oct-09 07:30N 40°40' W 074°01'0 0.0
2017-Oct-09 07:00N 40°40' W 074°01'0 0.0
2017-Oct-09 06:30N 40°40' W 074°01'0 0.0
2017-Oct-09 06:00N 40°40' W 074°01'0 0.0
2017-Oct-09 05:30N 40°40' W 074°01'0 0.0
2017-Oct-09 05:00N 40°40' W 074°01'2 4.7
2017-Oct-09 04:30N 40°40' W 074°04'4 8.5
2017-Oct-09 04:00N 40°39' W 074°10'2 3.4
2017-Oct-09 03:30N 40°38' W 074°12'0 0.0
2017-Oct-09 03:00N 40°38' W 074°12'0 0.0
2017-Oct-09 02:30N 40°38' W 074°12'0 0.0
2017-Oct-09 01:59N 40°38' W 074°12'0 0.0
2017-Oct-09 01:30N 40°38' W 074°12'0 0.7
2017-Oct-09 01:00N 40°39' W 074°11'510.1
2017-Oct-09 00:30N 40°39' W 074°05'1 2.7
2017-Oct-09 00:00N 40°40' W 074°03'1 1.3
2017-Oct-08 23:30N 40°40' W 074°03'  
Track history (hours):
 
Tides and Currents Weather Stations Pressure Air Temp Water Temp Dewpoint Dewpoint Depression Visibility Wind Speed Wind Dir Waves Ship Positions

Buchanan #12

Owner: Buchanan Marine LP, New Haven, CT. More information available from US FCC via Universal Licensing System and Coast Guard Vessel Documentation Center.

Last reported at 2017-Oct-18 23:15 UTC. Time now 2017-Oct-19 05:34 UTC.
Position N 40°57' W 073°54'.

Length 27 m; draft 3 m.

Type: Tug. MMSI: 366993970.

Date/timePositionNaut miles runAvg speedWind from/ knotsBaromVisibWave heightAir tempDewpointWater temp
2017-Oct-18 23:15N 40°57' W 073°54'3 8.5
2017-Oct-18 22:57N 40°54' W 073°55'4 8.5
2017-Oct-18 22:30N 40°51' W 073°57'4 8.2
2017-Oct-18 22:00N 40°47' W 073°59'4 7.3
2017-Oct-18 21:31N 40°44' W 074°01'4 7.2
2017-Oct-18 21:00N 40°40' W 074°03'1 1.1
2017-Oct-18 20:30N 40°40' W 074°03'1 2.1
2017-Oct-18 20:00N 40°41' W 074°02'2 3.4
2017-Oct-18 19:30N 40°41' W 074°00'1 2.9
2017-Oct-18 19:01N 40°40' W 074°01'0 0.2
2017-Oct-18 18:31N 40°40' W 074°01'0 0.0
2017-Oct-18 18:00N 40°40' W 074°01'0 0.0
2017-Oct-18 17:31N 40°40' W 074°01'2 3.1
2017-Oct-18 17:01N 40°40' W 074°03'0 0.8
2017-Oct-18 16:31N 40°40' W 074°03'2 3.4
2017-Oct-18 16:00N 40°41' W 074°02'3 6.3
2017-Oct-18 15:31N 40°44' W 074°01'3 6.3
2017-Oct-18 15:00N 40°47' W 073°60'5 5.1
2017-Oct-18 14:00N 40°52' W 073°57'6 0.4
2017-Oct-17 22:06N 40°57' W 073°54'1 7.9
2017-Oct-17 21:57N 40°56' W 073°54'3 7.6
2017-Oct-17 21:30N 40°53' W 073°56'4 7.3
2017-Oct-17 21:00N 40°49' W 073°58'3 6.8
2017-Oct-17 20:31N 40°47' W 074°00'3 6.0
2017-Oct-17 20:01N 40°44' W 074°01'3 6.0
2017-Oct-17 19:30N 40°41' W 074°02'1 2.4
2017-Oct-17 19:00N 40°40' W 074°03'0 0.0
2017-Oct-17 18:30N 40°40' W 074°03'0 0.0
2017-Oct-17 18:00N 40°40' W 074°03'0 0.1
2017-Oct-17 17:31N 40°40' W 074°03'2 3.8
2017-Oct-17 17:00N 40°41' W 074°02'3 6.3
2017-Oct-17 16:30N 40°45' W 074°01'3 6.4
2017-Oct-17 16:01N 40°47' W 073°60'3 5.8
2017-Oct-17 15:30N 40°50' W 073°58'3 5.2
2017-Oct-17 15:00N 40°52' W 073°56'5 0.3
2017-Oct-16 21:49N 40°57' W 073°54'2 7.1
2017-Oct-16 21:30N 40°55' W 073°55'3 6.6
2017-Oct-16 21:00N 40°52' W 073°56'3 6.9
2017-Oct-16 20:30N 40°49' W 073°58'3 6.6
2017-Oct-16 20:00N 40°46' W 074°00'3 5.9
2017-Oct-16 19:30N 40°43' W 074°01'3 5.6
2017-Oct-16 19:01N 40°41' W 074°02'1 1.9
2017-Oct-16 18:30N 40°40' W 074°03'2 4.7
2017-Oct-16 18:00N 40°40' W 074°00'0 0.6
2017-Oct-16 17:30N 40°40' W 074°01'2 4.1
2017-Oct-16 17:01N 40°40' W 074°03'2 4.1
2017-Oct-16 16:30N 40°41' W 074°01'0 0.9
2017-Oct-16 16:00N 40°41' W 074°01'1 1.4
2017-Oct-16 15:31N 40°40' W 074°01'0 0.0
2017-Oct-16 15:01N 40°40' W 074°01'0 0.0
2017-Oct-16 14:30N 40°40' W 074°01'0 0.0
2017-Oct-16 13:31N 40°40' W 074°01'0 0.0
2017-Oct-16 13:00N 40°40' W 074°01'0 0.0
2017-Oct-16 12:31N 40°40' W 074°01'0 0.0
2017-Oct-16 12:00N 40°40' W 074°01'0 0.0
2017-Oct-16 11:31N 40°40' W 074°01'0 0.0
2017-Oct-16 11:00N 40°40' W 074°01'0 0.0
2017-Oct-16 10:31N 40°40' W 074°01'0 0.0
2017-Oct-16 10:00N 40°40' W 074°01'2 0.1
2017-Oct-15 14:00N 40°40' W 074°03'3 5.7
2017-Oct-15 13:30N 40°39' W 074°07'0 0.0
2017-Oct-15 13:00N 40°39' W 074°07'0 0.0
2017-Oct-15 11:21N 40°39' W 074°07'1 4.2
2017-Oct-15 11:00N 40°39' W 074°05'1 2.5
2017-Oct-15 10:30N 40°40' W 074°03'0 0.0
2017-Oct-15 10:00N 40°40' W 074°03'0 0.0
2017-Oct-15 09:30N 40°40' W 074°03'0 0.0
2017-Oct-15 09:00N 40°40' W 074°03'0 0.0
2017-Oct-15 08:30N 40°40' W 074°03'0 0.0
2017-Oct-15 08:00N 40°40' W 074°03'0 0.0
2017-Oct-15 07:30N 40°40' W 074°03'0 0.0
2017-Oct-15 07:00N 40°40' W 074°03'0 0.0
2017-Oct-15 06:30N 40°40' W 074°03'0 0.0
2017-Oct-15 06:00N 40°40' W 074°03'0 0.0
2017-Oct-15 05:30N 40°40' W 074°03'0 0.0
2017-Oct-15 05:00N 40°40' W 074°03'0 0.0
2017-Oct-15 04:31N 40°40' W 074°03'0 0.0
2017-Oct-15 04:00N 40°40' W 074°03'0 0.0
2017-Oct-15 03:30N 40°40' W 074°03'2 3.9
2017-Oct-15 03:00N 40°42' W 074°02'4 7.4
2017-Oct-15 02:30N 40°45' W 074°01'4 6.9
2017-Oct-15 02:00N 40°48' W 073°59'3 6.0
2017-Oct-15 01:30N 40°51' W 073°57'3 5.2
2017-Oct-15 00:57N 40°54' W 073°56'3 0.2
2017-Oct-14 07:06N 40°57' W 073°54'2 6.4
2017-Oct-14 06:52N 40°55' W 073°55'2 6.0
2017-Oct-14 06:30N 40°53' W 073°56'3 5.7
2017-Oct-14 06:00N 40°51' W 073°57'3 5.6
2017-Oct-14 05:30N 40°48' W 073°59'3 5.0
2017-Oct-14 05:00N 40°46' W 074°00'2 4.5
2017-Oct-14 04:29N 40°44' W 074°01'2 4.5
2017-Oct-14 04:00N 40°42' W 074°02'2 3.9
2017-Oct-14 03:30N 40°40' W 074°03'0 0.0
2017-Oct-14 03:00N 40°40' W 074°03'0 0.1
2017-Oct-14 02:30N 40°40' W 074°03'3 5.6
2017-Oct-14 02:00N 40°42' W 074°02'3 6.8
2017-Oct-14 01:30N 40°46' W 074°01'6 6.2
2017-Oct-14 00:30N 40°51' W 073°57'6 0.3
2017-Oct-13 05:50N 40°57' W 073°54'2 6.1
2017-Oct-13 05:30N 40°55' W 073°55'3 5.9
2017-Oct-13 05:00N 40°52' W 073°56'3 5.4
2017-Oct-13 04:30N 40°50' W 073°58'3 5.3
2017-Oct-13 04:00N 40°48' W 073°59'2 4.9
2017-Oct-13 03:30N 40°45' W 074°01'3 5.2
2017-Oct-13 02:59N 40°43' W 074°01'2 4.8
2017-Oct-13 02:30N 40°41' W 074°03'1 1.9
2017-Oct-13 02:00N 40°40' W 074°03'0 0.1
2017-Oct-13 01:30N 40°40' W 074°03'0 0.4
2017-Oct-13 01:00N 40°40' W 074°03'3 6.0
2017-Oct-13 00:30N 40°43' W 074°02'3 6.7
2017-Oct-13 00:00N 40°46' W 074°01'3 6.5
2017-Oct-12 23:30N 40°49' W 073°59'3 5.8
2017-Oct-12 23:00N 40°51' W 073°57'6 0.3
2017-Oct-12 04:06N 40°57' W 073°54'1 6.7
2017-Oct-12 03:54N 40°56' W 073°55'3 6.4
2017-Oct-12 03:30N 40°53' W 073°56'3 6.2
2017-Oct-12 03:00N 40°50' W 073°57'3 5.8
2017-Oct-12 02:30N 40°48' W 073°59'3 5.1
2017-Oct-12 02:00N 40°46' W 074°01'3 5.1
2017-Oct-12 01:30N 40°43' W 074°01'3 5.0
2017-Oct-12 01:00N 40°41' W 074°03'1 2.1
2017-Oct-12 00:30N 40°40' W 074°03'0 0.1
2017-Oct-12 00:00N 40°40' W 074°03'0 0.1
2017-Oct-11 23:30N 40°40' W 074°03'3 5.8
2017-Oct-11 23:00N 40°42' W 074°02'3 6.7
2017-Oct-11 22:30N 40°46' W 074°01'3 5.9
2017-Oct-11 22:00N 40°48' W 073°59'2 5.1
2017-Oct-11 21:30N 40°51' W 073°57'3 5.3
2017-Oct-11 20:56N 40°53' W 073°56'15 0.7
2017-Oct-11 00:00N 40°40' W 074°03'0 0.1
2017-Oct-10 23:30N 40°40' W 074°03'0 0.0
2017-Oct-10 23:00N 40°40' W 074°03'1 2.3
2017-Oct-10 22:30N 40°41' W 074°02'4 7.0
2017-Oct-10 22:00N 40°44' W 074°01'4 7.1
2017-Oct-10 21:30N 40°47' W 073°59'3 6.8
2017-Oct-10 21:00N 40°51' W 073°57'3 5.9
2017-Oct-10 20:30N 40°53' W 073°56'3 0.2
2017-Oct-10 02:24N 40°57' W 073°54'2 6.2
2017-Oct-10 02:00N 40°54' W 073°55'3 5.8
2017-Oct-10 01:30N 40°52' W 073°57'3 5.7
2017-Oct-10 01:00N 40°49' W 073°58'3 5.1
2017-Oct-10 00:30N 40°47' W 073°60'2 4.3
2017-Oct-10 00:00N 40°45' W 074°01'2 4.5
2017-Oct-09 23:30N 40°42' W 074°02'2 4.4
2017-Oct-09 23:00N 40°40' W 074°03'1 1.6
2017-Oct-09 22:30N 40°40' W 074°03'0 0.0
2017-Oct-09 22:00N 40°40' W 074°03'0 0.2
2017-Oct-09 21:30N 40°40' W 074°03'0 0.0
2017-Oct-09 21:00N 40°40' W 074°03'0 0.0
2017-Oct-09 20:30N 40°40' W 074°03'0 0.2
2017-Oct-09 20:00N 40°40' W 074°03'1 2.9
2017-Oct-09 19:30N 40°40' W 074°02'1 1.3
2017-Oct-09 19:00N 40°40' W 074°01'0 0.0
2017-Oct-09 18:30N 40°40' W 074°01'0 0.0
2017-Oct-09 18:00N 40°40' W 074°01'0 0.0
2017-Oct-09 17:30N 40°40' W 074°01'0 0.0
2017-Oct-09 17:00N 40°40' W 074°01'0 0.0
2017-Oct-09 16:30N 40°40' W 074°01'0 0.0
2017-Oct-09 16:00N 40°40' W 074°01'0 0.0
2017-Oct-09 15:30N 40°40' W 074°01'0 0.0
2017-Oct-09 15:00N 40°40' W 074°01'0 0.0
2017-Oct-09 14:30N 40°40' W 074°01'0 0.0
2017-Oct-09 14:00N 40°40' W 074°01'0 0.0
2017-Oct-09 13:30N 40°40' W 074°01'0 0.0
2017-Oct-09 13:00N 40°40' W 074°01'0 0.0
2017-Oct-09 12:30N 40°40' W 074°01'0 0.0
2017-Oct-09 12:00N 40°40' W 074°01'0 0.0
2017-Oct-09 11:30N 40°40' W 074°01'0 0.0
2017-Oct-09 11:00N 40°40' W 074°01'0 0.0
2017-Oct-09 10:30N 40°40' W 074°01'0 0.0
2017-Oct-09 10:00N 40°40' W 074°01'0 0.0
2017-Oct-09 09:30N 40°40' W 074°01'0 0.0
2017-Oct-09 09:00N 40°40' W 074°01'0 0.0
2017-Oct-09 08:30N 40°40' W 074°01'0 0.0
2017-Oct-09 08:00N 40°40' W 074°01'0 0.0
2017-Oct-09 07:30N 40°40' W 074°01'0 0.0
2017-Oct-09 07:00N 40°40' W 074°01'0 0.0
2017-Oct-09 06:30N 40°40' W 074°01'0 0.0
2017-Oct-09 06:00N 40°40' W 074°01'0 0.0
2017-Oct-09 05:30N 40°40' W 074°01'0 0.0
2017-Oct-09 05:00N 40°40' W 074°01'2 4.7
2017-Oct-09 04:30N 40°40' W 074°04'4 8.5
2017-Oct-09 04:00N 40°39' W 074°10'2 3.4
2017-Oct-09 03:30N 40°38' W 074°12'0 0.0
2017-Oct-09 03:00N 40°38' W 074°12'0 0.0
2017-Oct-09 02:30N 40°38' W 074°12'0 0.0
2017-Oct-09 01:59N 40°38' W 074°12'0 0.0
2017-Oct-09 01:30N 40°38' W 074°12'0 0.7
2017-Oct-09 01:00N 40°39' W 074°11'510.1
2017-Oct-09 00:30N 40°39' W 074°05'1 2.7
2017-Oct-09 00:00N 40°40' W 074°03'1 1.3
2017-Oct-08 23:30N 40°40' W 074°03'  

Dump ship's entire track history